Time;durP1;ratioP1;P1;durP2;ratioP2;P2;SDS_P1;SDS_P2;PMS_P1;PMS_P2;Temp;Humidity;BMP_temperature;BMP_pressure;BME280_temperature;BME280_humidity;BME280_pressure;Samples;Min_cycle;Max_cycle;Signal;HPM_P1;HPM_P2
2021/04/04 00:00:32;;;;;;;7.05;2.88;;;23.30;26.90;;;;;;5041833;28;20041;-59
2021/04/04 00:02:58;;;;;;;3.97;2.85;;;23.30;26.90;;;;;;5039900;28;20053;-58
2021/04/04 00:05:24;;;;;;;4.50;2.40;;;23.20;26.80;;;;;;5047401;28;20085;-62
2021/04/04 00:07:50;;;;;;;4.03;2.45;;;23.20;26.90;;;;;;5041977;28;20025;-58
2021/04/04 00:10:18;;;;;;;5.22;2.85;;;23.20;26.80;;;;;;5023756;28;20017;-61
2021/04/04 00:12:44;;;;;;;5.63;2.42;;;23.20;26.90;;;;;;5042501;28;20029;-59
2021/04/04 00:15:12;;;;;;;3.35;2.03;;;23.20;26.90;;;;;;5042828;28;20052;-59
2021/04/04 00:17:38;;;;;;;5.10;2.50;;;23.20;26.90;;;;;;5043687;28;20037;-57
2021/04/04 00:20:10;;;;;;;5.38;2.47;;;23.20;27.00;;;;;;5045459;28;20021;-59
2021/04/04 00:22:36;;;;;;;4.15;2.20;;;23.20;27.00;;;;;;5043440;28;20103;-56
2021/04/04 00:25:05;;;;;;;3.47;2.13;;;23.20;27.00;;;;;;5041227;28;20051;-56
2021/04/04 00:27:30;;;;;;;3.40;2.30;;;23.20;27.00;;;;;;5041086;28;20063;-61
2021/04/04 00:29:56;;;;;;;3.00;1.90;;;23.10;26.90;;;;;;5046156;28;20113;-57
2021/04/04 00:32:22;;;;;;;4.22;2.15;;;23.10;26.90;;;;;;5045375;28;20429;-57
2021/04/04 00:34:48;;;;;;;3.38;2.00;;;23.20;26.90;;;;;;5041442;28;20400;-56
2021/04/04 00:37:14;;;;;;;5.13;2.40;;;23.10;26.90;;;;;;5041689;28;20037;-52
2021/04/04 00:39:39;;;;;;;3.50;1.63;;;23.10;26.90;;;;;;5048640;28;20032;-55
2021/04/04 00:42:05;;;;;;;3.53;1.98;;;23.10;26.90;;;;;;5041587;28;20053;-53
2021/04/04 00:44:31;;;;;;;4.00;2.13;;;23.10;26.90;;;;;;5046886;28;20040;-54
2021/04/04 00:46:57;;;;;;;3.50;2.08;;;23.10;26.90;;;;;;5044555;28;20036;-53
2021/04/04 00:49:23;;;;;;;5.03;2.00;;;23.10;26.90;;;;;;5035945;28;20040;-58
2021/04/04 00:51:48;;;;;;;2.92;1.80;;;23.10;26.90;;;;;;5034171;28;20034;-58
2021/04/04 00:54:18;;;;;;;2.53;1.60;;;23.10;26.90;;;;;;5022086;28;20029;-60
2021/04/04 00:56:44;;;;;;;3.22;2.00;;;23.00;26.90;;;;;;5026045;28;20079;-59
2021/04/04 00:59:12;;;;;;;3.70;1.65;;;23.10;26.90;;;;;;5036514;28;20117;-55
2021/04/04 01:01:38;;;;;;;4.38;1.70;;;23.00;26.90;;;;;;5035052;28;20053;-50
2021/04/04 01:04:04;;;;;;;3.42;1.60;;;23.10;26.90;;;;;;5036517;28;20038;-59
2021/04/04 01:06:30;;;;;;;4.03;1.90;;;23.00;26.90;;;;;;5034297;28;20117;-55
2021/04/04 01:08:56;;;;;;;2.88;1.40;;;23.00;26.90;;;;;;5039917;28;20028;-53
2021/04/04 01:11:31;;;;;;;3.67;1.55;;;23.00;26.90;;;;;;5055278;28;20037;-56
2021/04/04 01:14:26;;;;;;;3.65;1.95;;;23.00;26.90;;;;;;5047868;28;20463;-60
2021/04/04 01:16:58;;;;;;;3.60;1.67;;;23.00;26.90;;;;;;5050853;28;20166;-56
2021/04/04 01:19:44;;;;;;;3.47;1.35;;;23.00;26.90;;;;;;5040833;28;20062;-60
2021/04/04 01:22:14;;;;;;;4.43;1.90;;;23.00;26.90;;;;;;5024704;28;20044;-60
2021/04/04 01:25:01;;;;;;;4.00;2.08;;;23.00;26.90;;;;;;5037868;28;20033;-55
2021/04/04 01:27:42;;;;;;;2.63;1.45;;;23.00;26.90;;;;;;5049128;28;20038;-59
2021/04/04 01:30:12;;;;;;;3.55;1.88;;;23.00;26.90;;;;;;5041762;28;20033;-59
2021/04/04 01:32:41;;;;;;;3.63;1.70;;;22.90;26.90;;;;;;5040011;28;20157;-60
2021/04/04 01:35:09;;;;;;;5.03;1.70;;;22.90;26.90;;;;;;5033694;28;20029;-59
2021/04/04 01:37:36;;;;;;;2.72;1.45;;;22.90;27.00;;;;;;5044938;28;20094;-58
2021/04/04 01:40:06;;;;;;;2.45;1.30;;;22.90;26.90;;;;;;5053689;28;20029;-58
2021/04/04 01:42:36;;;;;;;2.67;1.35;;;22.90;26.90;;;;;;5047114;28;20045;-57
2021/04/04 01:45:06;;;;;;;3.15;1.50;;;22.90;26.90;;;;;;5047094;28;20433;-59
2021/04/04 01:47:33;;;;;;;2.60;1.20;;;22.90;26.90;;;;;;5046056;28;20434;-58
2021/04/04 01:50:00;;;;;;;3.63;1.30;;;22.90;26.90;;;;;;5028552;28;20438;-60
2021/04/04 01:52:29;;;;;;;2.85;1.58;;;22.90;26.90;;;;;;5034523;28;20033;-58
2021/04/04 01:54:57;;;;;;;2.80;1.17;;;22.90;26.90;;;;;;5045072;28;20086;-58
2021/04/04 01:57:24;;;;;;;3.35;1.40;;;22.90;26.90;;;;;;5056945;28;20033;-59
2021/04/04 01:59:51;;;;;;;3.22;1.38;;;22.90;26.90;;;;;;5053053;28;20029;-59
2021/04/04 02:02:17;;;;;;;3.08;1.30;;;22.90;26.90;;;;;;5039090;28;20444;-60
2021/04/04 02:04:44;;;;;;;3.05;1.20;;;22.90;26.90;;;;;;5047184;28;20426;-56
2021/04/04 02:07:14;;;;;;;2.85;1.23;;;22.90;26.90;;;;;;5040486;28;20036;-59
2021/04/04 02:09:42;;;;;;;3.88;1.38;;;22.90;26.90;;;;;;5049897;28;20045;-56
2021/04/04 02:12:08;;;;;;;3.45;1.40;;;22.90;26.90;;;;;;5056976;28;20587;-57
2021/04/04 02:14:35;;;;;;;2.50;1.33;;;22.90;26.90;;;;;;5053178;28;20021;-56
2021/04/04 02:17:01;;;;;;;2.38;1.23;;;22.80;26.90;;;;;;5055980;28;20477;-56
2021/04/04 02:19:28;;;;;;;3.25;1.20;;;22.80;26.90;;;;;;5056077;28;20309;-55
2021/04/04 02:21:57;;;;;;;3.72;1.67;;;22.80;26.90;;;;;;5056685;28;20044;-58
2021/04/04 02:24:27;;;;;;;3.30;1.27;;;22.90;27.00;;;;;;5055653;28;20040;-59
2021/04/04 02:26:53;;;;;;;2.92;1.40;;;22.80;27.00;;;;;;5056587;28;20102;-59
2021/04/04 02:29:19;;;;;;;2.60;1.15;;;22.80;27.00;;;;;;5054919;28;20025;-60
2021/04/04 02:32:00;;;;;;;2.70;0.98;;;22.80;27.00;;;;;;5056722;28;20037;-58
2021/04/04 02:34:34;;;;;;;2.90;1.30;;;22.80;27.00;;;;;;5051751;28;20040;-58
2021/04/04 02:37:11;;;;;;;2.30;1.20;;;22.80;27.00;;;;;;5048394;28;20032;-58
2021/04/04 02:39:47;;;;;;;2.28;1.10;;;22.80;27.00;;;;;;5047363;28;20025;-61
2021/04/04 02:42:18;;;;;;;2.28;1.10;;;22.80;27.00;;;;;;5052552;28;20049;-58
2021/04/04 02:44:46;;;;;;;3.63;1.42;;;22.80;27.00;;;;;;5055932;28;20449;-61
2021/04/04 02:47:14;;;;;;;2.70;1.23;;;22.80;27.00;;;;;;5039924;28;20052;-58
2021/04/04 02:49:45;;;;;;;3.05;1.17;;;22.80;27.00;;;;;;5019164;28;20037;-58
2021/04/04 02:52:12;;;;;;;2.67;0.95;;;22.80;27.00;;;;;;5041762;28;20365;-59
2021/04/04 02:54:40;;;;;;;2.67;1.13;;;22.70;26.90;;;;;;5055992;28;20033;-57
2021/04/04 02:57:08;;;;;;;2.05;0.90;;;22.70;27.00;;;;;;5043402;28;20094;-59
2021/04/04 02:59:37;;;;;;;2.03;1.13;;;22.80;27.00;;;;;;5018880;28;20098;-57
2021/04/04 03:02:06;;;;;;;3.33;1.42;;;22.70;27.00;;;;;;5037451;28;20029;-59
2021/04/04 03:04:36;;;;;;;2.28;1.00;;;22.70;27.00;;;;;;5044143;28;20364;-59
2021/04/04 03:07:03;;;;;;;2.35;1.02;;;22.70;27.00;;;;;;5051214;28;20082;-59
2021/04/04 03:09:30;;;;;;;1.85;1.02;;;22.70;27.00;;;;;;5047124;28;20041;-55
2021/04/04 03:11:57;;;;;;;1.98;1.02;;;22.70;27.00;;;;;;5053998;28;20328;-60
2021/04/04 03:14:25;;;;;;;2.38;1.02;;;22.70;27.00;;;;;;5055242;28;20110;-56
2021/04/04 03:16:53;;;;;;;2.70;0.93;;;22.70;27.00;;;;;;5053054;28;20037;-57
2021/04/04 03:19:20;;;;;;;2.05;0.90;;;22.70;27.00;;;;;;5055565;28;20127;-58
2021/04/04 03:21:46;;;;;;;2.35;1.10;;;22.70;27.00;;;;;;5035437;28;20108;-57
2021/04/04 03:24:15;;;;;;;4.18;1.30;;;22.70;27.00;;;;;;5055582;28;20045;-58
2021/04/04 03:26:42;;;;;;;2.83;1.08;;;22.70;27.00;;;;;;5035790;28;20029;-59
2021/04/04 03:29:09;;;;;;;2.78;0.93;;;22.70;27.10;;;;;;5055368;28;20021;-59
2021/04/04 03:31:36;;;;;;;1.90;0.80;;;22.70;27.10;;;;;;5042377;28;20022;-61
2021/04/04 03:34:02;;;;;;;3.15;1.27;;;22.60;27.00;;;;;;5035474;28;20026;-58
2021/04/04 03:36:30;;;;;;;2.53;0.88;;;22.70;27.00;;;;;;5037678;28;20026;-57
2021/04/04 03:38:57;;;;;;;2.45;0.88;;;22.70;27.00;;;;;;5021847;28;20021;-62
2021/04/04 03:41:28;;;;;;;2.47;1.17;;;22.60;27.00;;;;;;5040314;28;20396;-58
2021/04/04 03:43:55;;;;;;;3.03;1.00;;;22.70;27.10;;;;;;5035220;28;20053;-60
2021/04/04 03:46:26;;;;;;;2.45;1.00;;;22.60;27.00;;;;;;5019450;28;20068;-59
2021/04/04 03:48:55;;;;;;;2.05;0.90;;;22.60;27.00;;;;;;5041695;28;20025;-61
2021/04/04 03:51:25;;;;;;;2.22;1.00;;;22.60;27.00;;;;;;5025272;28;20033;-59
2021/04/04 03:53:52;;;;;;;2.25;1.00;;;22.60;27.00;;;;;;5040817;28;20420;-55
2021/04/04 03:56:25;;;;;;;2.30;1.00;;;22.60;27.00;;;;;;5041767;28;20382;-59
2021/04/04 03:58:52;;;;;;;2.30;1.13;;;22.60;27.00;;;;;;5053890;28;20108;-60
2021/04/04 04:01:24;;;;;;;2.10;0.93;;;22.60;27.00;;;;;;5043871;28;20041;-60
2021/04/04 04:03:52;;;;;;;1.70;0.88;;;22.60;27.10;;;;;;5038397;28;20032;-59
2021/04/04 04:06:19;;;;;;;2.05;0.90;;;22.60;27.00;;;;;;5016350;28;20364;-58
2021/04/04 04:08:46;;;;;;;2.03;0.73;;;22.60;27.10;;;;;;5042259;28;20157;-58
2021/04/04 04:11:14;;;;;;;1.75;0.80;;;22.60;27.10;;;;;;5045037;28;20471;-58
2021/04/04 04:13:42;;;;;;;2.92;1.05;;;22.60;27.10;;;;;;5043027;28;20030;-60
2021/04/04 04:16:14;;;;;;;1.27;0.82;;;22.60;27.10;;;;;;5034672;28;20037;-59
2021/04/04 04:18:44;;;;;;;2.13;0.90;;;22.60;27.10;;;;;;5043744;28;20090;-60
2021/04/04 04:21:12;;;;;;;1.40;0.60;;;22.60;27.10;;;;;;5054188;28;20541;-58
2021/04/04 04:23:39;;;;;;;1.80;0.70;;;22.60;27.10;;;;;;5024138;28;20045;-60
2021/04/04 04:26:10;;;;;;;1.70;0.88;;;22.60;27.10;;;;;;5036062;28;20035;-59
2021/04/04 04:28:38;;;;;;;2.30;0.95;;;22.60;27.10;;;;;;5034269;28;20037;-56
2021/04/04 04:31:11;;;;;;;2.38;0.68;;;22.50;27.10;;;;;;5054369;28;20029;-59
2021/04/04 04:33:43;;;;;;;2.33;0.93;;;22.50;27.10;;;;;;5022739;28;20025;-60
2021/04/04 04:36:10;;;;;;;1.80;0.85;;;22.50;27.10;;;;;;5016917;28;20057;-59
2021/04/04 04:38:39;;;;;;;1.23;0.70;;;22.50;27.10;;;;;;5048555;28;20098;-59
2021/04/04 04:41:06;;;;;;;1.20;0.73;;;22.50;27.10;;;;;;5050348;28;20071;-61
2021/04/04 04:43:36;;;;;;;1.23;0.60;;;22.50;27.10;;;;;;5034772;28;20049;-57
2021/04/04 04:46:02;;;;;;;3.50;0.80;;;22.50;27.10;;;;;;5041137;28;20013;-56
2021/04/04 04:48:32;;;;;;;2.40;0.77;;;22.50;27.10;;;;;;5035520;28;20423;-59
2021/04/04 04:50:58;;;;;;;2.03;0.80;;;22.50;27.10;;;;;;5051461;28;20037;-59
2021/04/04 04:53:25;;;;;;;2.53;0.90;;;22.50;27.10;;;;;;5038213;28;20096;-56
2021/04/04 04:56:02;;;;;;;2.53;0.70;;;22.50;27.10;;;;;;5034788;28;20078;-60
2021/04/04 04:58:30;;;;;;;2.33;0.80;;;22.50;27.10;;;;;;5051740;28;20410;-60
2021/04/04 05:01:05;;;;;;;1.50;0.73;;;22.50;27.10;;;;;;5035279;28;20112;-58
2021/04/04 05:03:30;;;;;;;1.25;0.60;;;22.50;27.10;;;;;;5051234;28;20045;-59
2021/04/04 05:06:07;;;;;;;1.52;0.57;;;22.50;27.10;;;;;;5052593;28;20131;-58
2021/04/04 05:08:33;;;;;;;2.08;0.88;;;22.50;27.10;;;;;;5034104;28;20071;-58
2021/04/04 05:11:04;;;;;;;2.05;0.80;;;22.50;27.20;;;;;;5047058;28;20456;-59
2021/04/04 05:13:31;;;;;;;1.70;1.10;;;22.40;27.10;;;;;;5051073;28;20440;-58
2021/04/04 05:15:59;;;;;;;1.42;0.60;;;22.50;27.20;;;;;;5053619;28;20098;-60
2021/04/04 05:18:25;;;;;;;1.73;0.80;;;22.40;27.10;;;;;;5043152;28;20029;-58
2021/04/04 05:20:51;;;;;;;1.85;0.70;;;22.40;27.10;;;;;;5055070;28;20497;-59
2021/04/04 05:23:22;;;;;;;1.65;0.70;;;22.40;27.10;;;;;;5035394;28;20041;-60
2021/04/04 05:25:51;;;;;;;2.28;0.80;;;22.40;27.10;;;;;;5056607;28;20052;-56
2021/04/04 05:28:18;;;;;;;1.65;0.70;;;22.40;27.20;;;;;;5054296;28;20029;-63
2021/04/04 05:30:44;;;;;;;2.13;0.65;;;22.40;27.20;;;;;;5037667;28;20041;-56
2021/04/04 05:33:10;;;;;;;0.80;0.50;;;22.40;27.10;;;;;;5038978;28;20122;-54
2021/04/04 05:35:39;;;;;;;0.95;0.55;;;22.40;27.20;;;;;;5053111;28;20079;-59
2021/04/04 05:38:07;;;;;;;2.75;0.82;;;22.40;27.20;;;;;;5051601;28;20357;-58
2021/04/04 05:40:34;;;;;;;2.15;1.08;;;22.40;27.20;;;;;;5022682;28;20032;-60
2021/04/04 05:43:14;;;;;;;3.00;0.68;;;22.40;27.20;;;;;;5029597;28;20496;-59
2021/04/04 05:45:47;;;;;;;2.58;0.68;;;22.40;27.20;;;;;;5055665;28;20032;-60
2021/04/04 05:48:56;;;;;;;1.02;0.50;;;22.40;27.70;;;;;;5052564;28;20314;-57
2021/04/04 05:51:56;;;;;;;1.95;0.75;;;22.40;27.20;;;;;;5044927;28;20072;-60
2021/04/04 05:54:59;;;;;;;1.70;0.60;;;22.40;27.30;;;;;;5041685;28;20049;-57
2021/04/04 05:57:35;;;;;;;2.33;0.75;;;22.40;27.30;;;;;;5050023;28;20037;-57
2021/04/04 06:00:06;;;;;;;1.08;0.40;;;22.40;27.30;;;;;;5045793;28;20025;-58
2021/04/04 06:02:55;;;;;;;3.13;0.90;;;22.40;27.40;;;;;;5041308;28;20543;-60
2021/04/04 06:05:35;;;;;;;2.08;0.70;;;22.40;27.40;;;;;;5052461;28;20056;-62
2021/04/04 06:08:26;;;;;;;1.95;0.80;;;22.40;27.40;;;;;;5033742;28;20116;-61
2021/04/04 06:11:13;;;;;;;1.73;0.80;;;22.40;27.40;;;;;;5038901;28;20029;-59
2021/04/04 06:14:07;;;;;;;2.97;0.63;;;22.40;27.40;;;;;;5037331;28;20051;-63
2021/04/04 06:17:12;;;;;;;1.08;0.50;;;22.40;27.40;;;;;;5050326;28;20088;-55
2021/04/04 06:19:59;;;;;;;2.03;0.70;;;22.40;27.40;;;;;;5054016;28;20037;-58
2021/04/04 06:22:40;;;;;;;1.27;0.50;;;22.40;27.50;;;;;;5044114;28;20112;-62
2021/04/04 06:25:26;;;;;;;2.10;0.63;;;22.40;27.50;;;;;;5054335;28;20017;-59
2021/04/04 06:28:01;;;;;;;1.85;0.57;;;22.50;27.50;;;;;;5043295;28;20072;-59
2021/04/04 06:30:46;;;;;;;1.83;0.65;;;22.60;27.50;;;;;;5047425;28;20083;-59
2021/04/04 06:33:22;;;;;;;2.05;0.52;;;22.60;27.50;;;;;;5040363;28;20115;-59
2021/04/04 06:36:06;;;;;;;1.63;0.80;;;22.70;27.50;;;;;;5046096;28;20045;-61
2021/04/04 06:39:00;;;;;;;1.42;0.63;;;22.70;27.40;;;;;;5044606;28;20160;-61
2021/04/04 06:41:53;;;;;;;1.50;0.55;;;22.80;27.30;;;;;;5028038;28;20034;-59
2021/04/04 06:44:58;;;;;;;1.10;0.60;;;22.80;27.20;;;;;;5041159;28;20037;-60
2021/04/04 06:47:35;;;;;;;0.85;0.40;;;22.80;27.10;;;;;;5044593;28;20104;-61
2021/04/04 06:50:20;;;;;;;1.08;0.50;;;22.90;27.00;;;;;;5048958;28;20048;-57
2021/04/04 06:52:57;;;;;;;1.25;0.50;;;22.90;26.90;;;;;;5044448;28;20052;-57
2021/04/04 06:55:50;;;;;;;1.60;0.60;;;23.00;26.90;;;;;;5044994;28;20035;-61
2021/04/04 06:58:34;;;;;;;1.45;0.70;;;23.00;26.90;;;;;;5023003;28;20018;-58
2021/04/04 07:01:38;;;;;;;0.57;0.28;;;23.00;26.90;;;;;;5032411;28;20036;-57
2021/04/04 07:04:14;;;;;;;0.80;0.50;;;23.10;26.90;;;;;;5049335;28;20039;-61
2021/04/04 07:06:52;;;;;;;1.55;0.65;;;23.10;26.80;;;;;;5043124;28;20131;-58
2021/04/04 07:09:44;;;;;;;1.92;0.80;;;23.10;26.80;;;;;;5022457;28;20104;-59
2021/04/04 07:12:25;;;;;;;1.80;0.50;;;23.20;26.80;;;;;;5042808;28;20325;-59
2021/04/04 07:15:07;;;;;;;2.65;0.80;;;23.20;26.80;;;;;;5042962;28;20519;-56
2021/04/04 07:17:55;;;;;;;2.33;0.60;;;23.20;26.80;;;;;;5034907;28;20022;-58
2021/04/04 07:20:46;;;;;;;3.85;0.70;;;23.20;26.80;;;;;;5048720;28;20091;-55
2021/04/04 07:24:03;;;;;;;1.95;0.80;;;23.20;26.70;;;;;;4989008;28;20041;-56
2021/04/04 07:26:43;;;;;;;1.45;0.50;;;23.30;26.70;;;;;;5002492;28;20472;-54
2021/04/04 07:29:14;;;;;;;1.50;0.60;;;23.20;26.70;;;;;;5024638;28;20036;-58
2021/04/04 07:31:48;;;;;;;1.65;0.50;;;23.30;26.70;;;;;;5048390;28;20021;-59
2021/04/04 07:34:19;;;;;;;1.30;0.55;;;23.30;26.70;;;;;;5052575;28;20033;-59
2021/04/04 07:36:57;;;;;;;1.30;0.50;;;23.20;26.70;;;;;;5030337;28;20056;-61
2021/04/04 07:39:26;;;;;;;1.35;0.47;;;23.30;26.70;;;;;;5057662;28;20039;-61
2021/04/04 07:42:00;;;;;;;1.55;0.60;;;23.30;26.70;;;;;;5054925;28;20063;-61
2021/04/04 07:44:35;;;;;;;1.17;0.47;;;23.30;26.70;;;;;;5043048;28;20064;-59
2021/04/04 07:47:21;;;;;;;1.17;0.47;;;23.30;26.70;;;;;;5042900;28;20475;-61
2021/04/04 07:49:50;;;;;;;1.27;0.50;;;23.30;26.70;;;;;;5054894;28;20155;-61
2021/04/04 07:52:31;;;;;;;1.13;0.40;;;23.30;26.70;;;;;;5043796;28;20151;-59
2021/04/04 07:55:17;;;;;;;1.85;0.80;;;23.30;26.70;;;;;;5068452;28;20032;-59
2021/04/04 07:57:58;;;;;;;2.33;0.68;;;23.30;26.70;;;;;;5057292;28;20105;-59
2021/04/04 08:00:25;;;;;;;1.92;0.57;;;23.30;26.70;;;;;;5055353;28;20124;-56
2021/04/04 08:03:22;;;;;;;4.82;0.70;;;23.30;26.70;;;;;;5038947;28;20043;-57
2021/04/04 08:05:51;;;;;;;1.77;0.50;;;23.40;26.70;;;;;;5044797;28;20076;-57
2021/04/04 08:08:19;;;;;;;1.40;0.60;;;23.30;26.80;;;;;;5047059;28;20898;-58
2021/04/04 08:10:55;;;;;;;1.40;0.43;;;23.30;26.90;;;;;;5026173;28;20036;-59
2021/04/04 08:13:43;;;;;;;1.20;0.50;;;23.40;27.10;;;;;;5045727;28;20102;-61
2021/04/04 08:16:28;;;;;;;1.15;0.50;;;23.40;27.10;;;;;;5039110;28;20029;-57
2021/04/04 08:18:53;;;;;;;1.50;0.50;;;23.40;27.20;;;;;;5036435;28;20395;-60
2021/04/04 08:21:24;;;;;;;0.68;0.40;;;23.40;27.20;;;;;;5023032;28;20104;-61
2021/04/04 08:24:09;;;;;;;1.83;0.60;;;23.50;27.20;;;;;;5027271;28;20361;-57
2021/04/04 08:26:40;;;;;;;2.03;0.70;;;23.50;27.20;;;;;;5023717;28;20495;-58
2021/04/04 08:29:08;;;;;;;1.92;0.60;;;23.50;27.20;;;;;;5040944;28;20068;-58
2021/04/04 08:31:48;;;;;;;2.00;0.60;;;23.50;27.10;;;;;;5043061;28;20040;-61
2021/04/04 08:34:36;;;;;;;0.90;0.45;;;23.50;27.10;;;;;;5039428;28;20030;-58
2021/04/04 08:37:34;;;;;;;0.63;0.40;;;23.50;27.10;;;;;;5041661;28;20087;-62
2021/04/04 08:40:05;;;;;;;0.52;0.40;;;23.50;27.00;;;;;;5023658;28;20045;-60
2021/04/04 08:42:34;;;;;;;0.73;0.38;;;23.50;27.00;;;;;;5041434;28;20045;-57
2021/04/04 08:45:16;;;;;;;1.13;0.47;;;23.50;26.90;;;;;;5042136;28;20138;-61
2021/04/04 08:47:44;;;;;;;2.08;0.40;;;23.40;26.90;;;;;;5031101;28;20039;-62
2021/04/04 08:50:16;;;;;;;0.73;0.32;;;23.40;26.80;;;;;;5041264;28;20068;-63
2021/04/04 08:53:07;;;;;;;0.70;0.38;;;23.40;26.70;;;;;;5039598;28;20132;-59
2021/04/04 08:55:35;;;;;;;0.75;0.30;;;23.50;26.70;;;;;;5053067;28;20096;-61
2021/04/04 08:58:02;;;;;;;1.08;0.40;;;23.40;26.70;;;;;;5049238;28;20433;-58
2021/04/04 09:00:30;;;;;;;1.20;0.45;;;23.40;26.60;;;;;;5033633;28;20033;-59
2021/04/04 09:03:10;;;;;;;1.13;0.40;;;23.40;26.60;;;;;;5051504;28;20052;-59
2021/04/04 09:05:37;;;;;;;0.60;0.30;;;23.40;26.50;;;;;;5033514;28;20349;-60
2021/04/04 09:08:05;;;;;;;0.85;0.20;;;23.40;26.50;;;;;;5016636;28;20037;-59
2021/04/04 09:10:41;;;;;;;0.60;0.20;;;23.40;26.50;;;;;;5041613;28;20096;-60
2021/04/04 09:13:14;;;;;;;1.48;0.47;;;23.40;27.00;;;;;;5015616;28;20052;-60
2021/04/04 09:15:51;;;;;;;0.68;0.22;;;23.40;26.40;;;;;;5033885;28;20353;-59
2021/04/04 09:18:18;;;;;;;0.35;0.10;;;23.40;26.40;;;;;;5033255;28;20124;-61
2021/04/04 09:20:46;;;;;;;0.55;0.20;;;23.40;26.40;;;;;;5035418;28;20111;-59
2021/04/04 09:23:16;;;;;;;0.65;0.30;;;23.40;26.40;;;;;;5040418;28;20060;-58
2021/04/04 09:25:51;;;;;;;0.88;0.30;;;23.40;26.40;;;;;;5018575;28;20448;-58
2021/04/04 09:28:19;;;;;;;0.65;0.20;;;23.40;26.40;;;;;;5052811;28;20142;-58
2021/04/04 09:30:46;;;;;;;2.35;0.40;;;23.40;26.40;;;;;;5033717;28;20044;-60
2021/04/04 09:33:15;;;;;;;0.80;0.43;;;23.40;26.40;;;;;;5045782;28;20108;-58
2021/04/04 09:35:42;;;;;;;0.50;0.20;;;23.40;26.40;;;;;;5035771;28;20048;-58
2021/04/04 09:38:13;;;;;;;0.28;0.20;;;23.40;26.40;;;;;;5038662;28;20436;-59
2021/04/04 09:40:43;;;;;;;0.45;0.30;;;23.40;26.40;;;;;;5052949;28;20123;-61
2021/04/04 09:43:14;;;;;;;0.57;0.30;;;23.40;26.40;;;;;;5039538;28;20389;-60
2021/04/04 09:45:41;;;;;;;0.05;0.05;;;23.40;26.40;;;;;;5048198;28;20369;-61
2021/04/04 09:48:24;;;;;;;0.63;0.20;;;23.40;26.50;;;;;;5037720;28;20036;-59
2021/04/04 09:51:09;;;;;;;0.88;0.35;;;23.40;26.50;;;;;;5047515;28;20467;-59
2021/04/04 09:53:39;;;;;;;0.50;0.30;;;23.30;26.40;;;;;;5036852;28;20021;-54
2021/04/04 09:56:10;;;;;;;0.85;0.25;;;23.30;26.40;;;;;;5032426;28;20314;-60
2021/04/04 09:58:55;;;;;;;0.38;0.17;;;23.30;26.40;;;;;;5042151;28;20036;-57
2021/04/04 10:01:22;;;;;;;;;;;23.30;26.40;;;;;;5045252;28;20033;-58
2021/04/04 10:04:01;;;;;;;0.57;0.20;;;23.30;26.50;;;;;;5054851;28;20263;-60
2021/04/04 10:06:28;;;;;;;0.63;0.20;;;23.40;26.50;;;;;;5035972;28;20033;-61
2021/04/04 10:09:11;;;;;;;0.52;0.20;;;23.30;26.50;;;;;;5036782;28;20021;-58
2021/04/04 10:11:37;;;;;;;0.65;0.30;;;23.30;26.50;;;;;;5048767;28;20071;-61
2021/04/04 10:14:14;;;;;;;0.30;0.30;;;23.30;26.60;;;;;;5033551;28;20064;-60
2021/04/04 10:16:40;;;;;;;0.25;0.20;;;23.30;26.60;;;;;;5054988;28;20526;-58
2021/04/04 10:19:16;;;;;;;0.65;0.10;;;23.30;26.60;;;;;;5036319;28;20365;-59
2021/04/04 10:21:55;;;;;;;0.65;0.20;;;23.30;26.60;;;;;;5036878;28;20036;-58
2021/04/04 10:24:35;;;;;;;0.63;0.20;;;23.30;26.60;;;;;;5034507;28;20068;-58
2021/04/04 10:27:30;;;;;;;0.70;0.28;;;23.30;26.60;;;;;;5053146;28;20337;-59
2021/04/04 10:30:14;;;;;;;0.30;0.22;;;23.30;26.50;;;;;;5022239;28;20110;-58
2021/04/04 10:32:42;;;;;;;0.28;0.20;;;23.30;26.50;;;;;;5041783;28;20038;-57
2021/04/04 10:35:10;;;;;;;1.55;0.40;;;23.30;26.60;;;;;;5036079;28;20045;-56
2021/04/04 10:37:37;;;;;;;0.38;0.20;;;23.30;26.50;;;;;;5039979;28;20488;-57
2021/04/04 10:40:06;;;;;;;0.57;0.10;;;23.30;26.50;;;;;;5037967;28;20034;-56
2021/04/04 10:42:33;;;;;;;0.47;0.20;;;23.30;26.50;;;;;;5053213;28;20049;-58
2021/04/04 10:45:16;;;;;;;1.00;0.30;;;23.30;26.50;;;;;;5054089;28;20041;-59
2021/04/04 10:47:43;;;;;;;0.93;0.40;;;23.30;26.40;;;;;;5024683;28;20105;-57
2021/04/04 10:50:12;;;;;;;0.52;0.22;;;23.30;26.40;;;;;;5054265;28;20044;-60
2021/04/04 10:52:39;;;;;;;0.47;0.20;;;23.30;26.40;;;;;;5040353;28;20037;-60
2021/04/04 10:55:06;;;;;;;0.52;0.28;;;23.30;26.30;;;;;;5036207;28;20029;-58
2021/04/04 10:57:34;;;;;;;0.30;0.10;;;23.30;26.30;;;;;;5040123;28;20182;-59
2021/04/04 11:00:01;;;;;;;0.20;0.10;;;23.30;26.30;;;;;;5035841;28;20065;-59
2021/04/04 11:02:29;;;;;;;0.13;0.13;;;23.40;26.30;;;;;;5035337;28;20099;-58
2021/04/04 11:04:57;;;;;;;0.38;0.20;;;23.30;26.30;;;;;;5017709;28;20041;-59
2021/04/04 11:07:23;;;;;;;1.02;0.20;;;23.40;26.30;;;;;;5042377;28;20087;-58
2021/04/04 11:09:49;;;;;;;0.70;0.30;;;23.40;26.30;;;;;;5043639;28;20518;-55
2021/04/04 11:12:16;;;;;;;0.45;0.20;;;23.40;26.20;;;;;;5019131;28;20030;-56
2021/04/04 11:14:45;;;;;;;0.52;0.20;;;23.40;26.20;;;;;;5034663;28;20053;-55
2021/04/04 11:17:13;;;;;;;2.15;0.47;;;23.40;26.20;;;;;;5036680;28;20074;-56
2021/04/04 11:19:48;;;;;;;0.15;0.13;;;23.40;26.10;;;;;;5047929;28;20376;-55
2021/04/04 11:22:20;;;;;;;0.40;0.22;;;23.40;26.10;;;;;;5049543;28;20037;-58
2021/04/04 11:24:56;;;;;;;0.43;0.20;;;23.40;26.10;;;;;;5034400;28;20049;-56
2021/04/04 11:27:40;;;;;;;0.22;0.17;;;23.40;26.10;;;;;;5046046;28;20021;-55
2021/04/04 11:30:13;;;;;;;0.70;0.30;;;23.40;26.10;;;;;;5053125;28;20044;-56
2021/04/04 11:32:41;;;;;;;3.00;0.40;;;23.40;26.10;;;;;;5034786;28;20475;-54
2021/04/04 11:35:08;;;;;;;0.55;0.20;;;23.40;26.00;;;;;;5044716;28;20037;-56
2021/04/04 11:37:37;;;;;;;0.55;0.30;;;23.40;26.00;;;;;;5053956;28;20029;-57
2021/04/04 11:40:29;;;;;;;0.73;0.30;;;23.40;26.00;;;;;;5049280;28;20120;-54
2021/04/04 11:43:26;;;;;;;0.20;0.20;;;23.40;25.90;;;;;;5047248;28;20491;-56
2021/04/04 11:45:51;;;;;;;0.70;0.30;;;23.40;26.00;;;;;;5040263;28;20067;-53
2021/04/04 11:48:27;;;;;;;0.65;0.30;;;23.30;26.00;;;;;;5053116;28;20072;-59
2021/04/04 11:50:54;;;;;;;0.52;0.30;;;23.40;26.00;;;;;;5024437;28;20017;-58
2021/04/04 11:53:38;;;;;;;0.35;0.30;;;23.30;26.00;;;;;;5053584;28;20033;-59
2021/04/04 11:56:04;;;;;;;0.85;0.45;;;23.30;26.20;;;;;;5023596;28;20136;-54
2021/04/04 11:58:30;;;;;;;0.40;0.30;;;23.20;26.30;;;;;;5044542;28;20201;-60
2021/04/04 12:00:56;;;;;;;1.33;0.57;;;23.30;26.40;;;;;;5049393;28;20029;-56
2021/04/04 12:03:26;;;;;;;0.82;0.32;;;23.20;26.50;;;;;;5036673;28;20037;-57
2021/04/04 12:05:52;;;;;;;1.27;0.38;;;23.30;26.60;;;;;;5041104;28;20028;-57
2021/04/04 12:08:27;;;;;;;1.45;0.50;;;23.30;26.60;;;;;;5042605;28;20455;-58
2021/04/04 12:10:54;;;;;;;1.60;0.70;;;23.30;26.70;;;;;;5044239;28;20314;-58
2021/04/04 12:13:20;;;;;;;0.82;0.30;;;23.30;26.80;;;;;;5033876;28;20021;-58
2021/04/04 12:15:45;;;;;;;0.63;0.40;;;23.30;26.80;;;;;;5034059;28;20044;-57
2021/04/04 12:18:11;;;;;;;0.80;0.40;;;23.20;26.80;;;;;;5053617;28;20056;-57
2021/04/04 12:20:39;;;;;;;1.15;0.65;;;23.30;26.90;;;;;;5052606;28;20060;-58
2021/04/04 12:23:13;;;;;;;0.57;0.40;;;23.20;26.90;;;;;;5036560;28;20049;-58
2021/04/04 12:25:39;;;;;;;0.82;0.50;;;23.20;27.00;;;;;;5033102;28;20064;-54
2021/04/04 12:28:06;;;;;;;1.08;0.50;;;23.30;27.10;;;;;;5049877;28;20114;-58
2021/04/04 12:30:42;;;;;;;2.05;0.80;;;23.30;27.10;;;;;;5033796;28;20532;-56
2021/04/04 12:33:13;;;;;;;1.15;0.60;;;23.30;27.10;;;;;;5035101;28;20033;-58
2021/04/04 12:35:43;;;;;;;1.00;0.70;;;23.30;27.10;;;;;;4999781;28;20025;-55
2021/04/04 12:38:21;;;;;;;1.20;0.70;;;23.30;27.10;;;;;;5050655;28;20064;-58
2021/04/04 12:40:47;;;;;;;0.95;0.60;;;23.20;27.00;;;;;;5048387;28;20086;-59
2021/04/04 12:43:12;;;;;;;0.80;0.60;;;23.20;27.00;;;;;;5049659;28;20068;-59
2021/04/04 12:45:39;;;;;;;1.77;0.60;;;23.20;27.00;;;;;;5043223;28;20053;-52
2021/04/04 12:48:28;;;;;;;0.93;0.73;;;23.20;27.00;;;;;;5053597;28;20360;-60
2021/04/04 12:51:00;;;;;;;1.20;0.70;;;23.20;27.00;;;;;;5039145;28;20052;-53
2021/04/04 12:53:33;;;;;;;1.42;0.93;;;23.20;27.10;;;;;;5053417;28;20108;-59
2021/04/04 12:56:00;;;;;;;1.45;0.93;;;23.20;27.10;;;;;;5040873;28;20029;-54
2021/04/04 12:58:35;;;;;;;0.80;0.70;;;23.10;27.10;;;;;;5056136;28;20033;-53
2021/04/04 13:01:02;;;;;;;1.08;0.50;;;23.10;27.10;;;;;;5052085;28;20029;-52
2021/04/04 13:03:33;;;;;;;0.90;0.70;;;23.10;27.10;;;;;;5025762;28;20422;-51
2021/04/04 13:05:59;;;;;;;1.02;0.60;;;23.10;27.10;;;;;;5043973;28;20037;-54
2021/04/04 13:08:27;;;;;;;1.13;0.90;;;23.10;27.10;;;;;;5055561;28;20043;-59
2021/04/04 13:11:03;;;;;;;1.25;0.77;;;23.00;27.10;;;;;;5054536;28;20036;-61
2021/04/04 13:13:30;;;;;;;1.20;0.80;;;23.10;27.10;;;;;;5047492;28;20463;-56
2021/04/04 13:16:07;;;;;;;1.00;0.77;;;23.00;27.10;;;;;;5051709;28;20029;-58